sensor_id;sensor_type;location;lat;lon;timestamp;P1;durP1;ratioP1;P2;durP2;ratioP2
53287;SDS011;39172;45.550;12.072;2023-05-10T00:00:49;2.65;;;2.10;;
53287;SDS011;39172;45.550;12.072;2023-05-10T00:06:56;2.28;;;1.90;;
53287;SDS011;39172;45.550;12.072;2023-05-10T00:12:57;3.20;;;2.05;;
53287;SDS011;39172;45.550;12.072;2023-05-10T00:18:58;2.40;;;1.85;;
53287;SDS011;39172;45.550;12.072;2023-05-10T00:24:59;3.10;;;1.80;;
53287;SDS011;39172;45.550;12.072;2023-05-10T00:31:00;2.60;;;1.85;;
53287;SDS011;39172;45.550;12.072;2023-05-10T00:37:01;2.38;;;1.73;;
53287;SDS011;39172;45.550;12.072;2023-05-10T00:43:02;2.03;;;1.70;;
53287;SDS011;39172;45.550;12.072;2023-05-10T00:49:03;2.30;;;1.98;;
53287;SDS011;39172;45.550;12.072;2023-05-10T00:55:05;3.35;;;1.98;;
53287;SDS011;39172;45.550;12.072;2023-05-10T01:01:06;2.10;;;1.80;;
53287;SDS011;39172;45.550;12.072;2023-05-10T01:07:08;2.50;;;1.80;;
53287;SDS011;39172;45.550;12.072;2023-05-10T01:13:09;1.95;;;1.60;;
53287;SDS011;39172;45.550;12.072;2023-05-10T01:19:12;1.70;;;1.60;;
53287;SDS011;39172;45.550;12.072;2023-05-10T01:37:22;2.30;;;1.80;;
53287;SDS011;39172;45.550;12.072;2023-05-10T01:43:30;1.88;;;1.70;;
53287;SDS011;39172;45.550;12.072;2023-05-10T01:49:34;1.85;;;1.60;;
53287;SDS011;39172;45.550;12.072;2023-05-10T01:55:47;2.00;;;1.77;;
53287;SDS011;39172;45.550;12.072;2023-05-10T02:01:49;1.70;;;1.60;;
53287;SDS011;39172;45.550;12.072;2023-05-10T02:07:51;1.75;;;1.60;;
53287;SDS011;39172;45.550;12.072;2023-05-10T02:13:53;2.03;;;1.70;;
53287;SDS011;39172;45.550;12.072;2023-05-10T02:19:59;2.10;;;1.80;;
53287;SDS011;39172;45.550;12.072;2023-05-10T02:26:01;3.38;;;1.75;;
53287;SDS011;39172;45.550;12.072;2023-05-10T02:32:03;2.67;;;1.80;;
53287;SDS011;39172;45.550;12.072;2023-05-10T02:38:04;2.17;;;1.90;;
53287;SDS011;39172;45.550;12.072;2023-05-10T02:44:07;2.25;;;1.90;;
53287;SDS011;39172;45.550;12.072;2023-05-10T02:50:09;2.38;;;1.85;;
53287;SDS011;39172;45.550;12.072;2023-05-10T02:56:15;2.22;;;1.88;;
53287;SDS011;39172;45.550;12.072;2023-05-10T03:02:18;1.92;;;1.73;;
53287;SDS011;39172;45.550;12.072;2023-05-10T03:08:21;2.05;;;1.60;;
53287;SDS011;39172;45.550;12.072;2023-05-10T03:20:42;1.73;;;1.60;;
53287;SDS011;39172;45.550;12.072;2023-05-10T03:26:44;1.80;;;1.70;;
53287;SDS011;39172;45.550;12.072;2023-05-10T03:32:50;2.75;;;1.80;;
53287;SDS011;39172;45.550;12.072;2023-05-10T03:38:52;1.60;;;1.42;;
53287;SDS011;39172;45.550;12.072;2023-05-10T03:44:53;1.80;;;1.50;;
53287;SDS011;39172;45.550;12.072;2023-05-10T03:50:54;1.90;;;1.70;;
53287;SDS011;39172;45.550;12.072;2023-05-10T03:56:56;2.00;;;1.70;;
53287;SDS011;39172;45.550;12.072;2023-05-10T04:02:58;1.80;;;1.60;;
53287;SDS011;39172;45.550;12.072;2023-05-10T04:08:59;1.60;;;1.40;;
53287;SDS011;39172;45.550;12.072;2023-05-10T04:15:02;1.70;;;1.52;;
53287;SDS011;39172;45.550;12.072;2023-05-10T04:21:03;1.60;;;1.50;;
53287;SDS011;39172;45.550;12.072;2023-05-10T04:27:04;1.60;;;1.50;;
53287;SDS011;39172;45.550;12.072;2023-05-10T04:33:11;1.77;;;1.60;;
53287;SDS011;39172;45.550;12.072;2023-05-10T04:39:12;2.08;;;1.80;;
53287;SDS011;39172;45.550;12.072;2023-05-10T04:45:14;1.90;;;1.40;;
53287;SDS011;39172;45.550;12.072;2023-05-10T04:51:22;1.70;;;1.60;;
53287;SDS011;39172;45.550;12.072;2023-05-10T04:57:23;1.60;;;1.50;;
53287;SDS011;39172;45.550;12.072;2023-05-10T05:03:24;2.17;;;1.90;;
53287;SDS011;39172;45.550;12.072;2023-05-10T05:09:25;2.17;;;1.80;;
53287;SDS011;39172;45.550;12.072;2023-05-10T05:15:26;1.67;;;1.58;;
53287;SDS011;39172;45.550;12.072;2023-05-10T05:21:27;1.88;;;1.67;;
53287;SDS011;39172;45.550;12.072;2023-05-10T05:27:28;1.70;;;1.60;;
53287;SDS011;39172;45.550;12.072;2023-05-10T05:33:29;2.08;;;1.75;;
53287;SDS011;39172;45.550;12.072;2023-05-10T05:39:30;2.08;;;1.70;;
53287;SDS011;39172;45.550;12.072;2023-05-10T05:45:31;1.75;;;1.63;;
53287;SDS011;39172;45.550;12.072;2023-05-10T05:51:31;2.08;;;1.80;;
53287;SDS011;39172;45.550;12.072;2023-05-10T05:57:32;1.95;;;1.80;;
53287;SDS011;39172;45.550;12.072;2023-05-10T06:03:33;2.25;;;1.73;;
53287;SDS011;39172;45.550;12.072;2023-05-10T06:09:35;2.38;;;2.13;;
53287;SDS011;39172;45.550;12.072;2023-05-10T06:15:36;1.70;;;1.45;;
53287;SDS011;39172;45.550;12.072;2023-05-10T06:21:36;1.83;;;1.45;;
53287;SDS011;39172;45.550;12.072;2023-05-10T06:27:37;2.35;;;1.60;;
53287;SDS011;39172;45.550;12.072;2023-05-10T06:33:38;1.50;;;1.40;;
53287;SDS011;39172;45.550;12.072;2023-05-10T06:39:40;2.05;;;1.85;;
53287;SDS011;39172;45.550;12.072;2023-05-10T06:45:41;2.25;;;1.80;;
53287;SDS011;39172;45.550;12.072;2023-05-10T06:51:42;1.88;;;1.67;;
53287;SDS011;39172;45.550;12.072;2023-05-10T06:57:44;2.08;;;1.80;;
53287;SDS011;39172;45.550;12.072;2023-05-10T07:03:45;2.17;;;1.98;;
53287;SDS011;39172;45.550;12.072;2023-05-10T07:09:46;2.97;;;2.58;;
53287;SDS011;39172;45.550;12.072;2023-05-10T07:15:47;2.33;;;1.92;;
53287;SDS011;39172;45.550;12.072;2023-05-10T07:21:48;2.53;;;2.22;;
53287;SDS011;39172;45.550;12.072;2023-05-10T07:27:49;2.53;;;2.30;;
53287;SDS011;39172;45.550;12.072;2023-05-10T07:33:54;2.92;;;2.58;;
53287;SDS011;39172;45.550;12.072;2023-05-10T07:39:55;2.55;;;2.30;;
53287;SDS011;39172;45.550;12.072;2023-05-10T07:45:59;3.30;;;2.60;;
53287;SDS011;39172;45.550;12.072;2023-05-10T07:52:00;3.03;;;2.33;;
53287;SDS011;39172;45.550;12.072;2023-05-10T07:58:01;4.18;;;2.50;;
53287;SDS011;39172;45.550;12.072;2023-05-10T08:04:02;4.50;;;2.95;;
53287;SDS011;39172;45.550;12.072;2023-05-10T08:10:04;3.60;;;2.55;;
53287;SDS011;39172;45.550;12.072;2023-05-10T08:16:05;4.35;;;2.90;;
53287;SDS011;39172;45.550;12.072;2023-05-10T08:22:06;5.78;;;4.10;;
53287;SDS011;39172;45.550;12.072;2023-05-10T08:28:07;7.15;;;4.20;;
53287;SDS011;39172;45.550;12.072;2023-05-10T08:34:08;88.50;;;10.45;;
53287;SDS011;39172;45.550;12.072;2023-05-10T08:40:10;13.48;;;4.28;;
53287;SDS011;39172;45.550;12.072;2023-05-10T08:46:14;6.75;;;3.63;;
53287;SDS011;39172;45.550;12.072;2023-05-10T08:52:16;3.92;;;3.40;;
53287;SDS011;39172;45.550;12.072;2023-05-10T08:58:18;4.28;;;3.17;;
53287;SDS011;39172;45.550;12.072;2023-05-10T09:04:20;4.88;;;3.20;;
53287;SDS011;39172;45.550;12.072;2023-05-10T09:10:21;4.40;;;3.38;;
53287;SDS011;39172;45.550;12.072;2023-05-10T09:16:23;3.75;;;2.92;;
53287;SDS011;39172;45.550;12.072;2023-05-10T09:22:27;3.78;;;3.00;;
53287;SDS011;39172;45.550;12.072;2023-05-10T09:28:31;4.28;;;3.50;;
53287;SDS011;39172;45.550;12.072;2023-05-10T09:34:32;4.70;;;3.63;;
53287;SDS011;39172;45.550;12.072;2023-05-10T09:40:33;5.75;;;3.90;;
53287;SDS011;39172;45.550;12.072;2023-05-10T09:46:35;5.10;;;4.18;;
53287;SDS011;39172;45.550;12.072;2023-05-10T09:52:45;5.28;;;4.10;;
53287;SDS011;39172;45.550;12.072;2023-05-10T09:58:47;5.78;;;3.70;;
53287;SDS011;39172;45.550;12.072;2023-05-10T10:05:02;4.38;;;3.80;;
53287;SDS011;39172;45.550;12.072;2023-05-10T10:11:06;3.65;;;3.13;;
53287;SDS011;39172;45.550;12.072;2023-05-10T10:17:07;3.78;;;3.38;;
53287;SDS011;39172;45.550;12.072;2023-05-10T10:23:08;3.92;;;3.58;;
53287;SDS011;39172;45.550;12.072;2023-05-10T10:35:15;3.65;;;3.30;;
53287;SDS011;39172;45.550;12.072;2023-05-10T10:41:28;3.60;;;3.30;;
53287;SDS011;39172;45.550;12.072;2023-05-10T10:47:29;4.22;;;3.65;;
53287;SDS011;39172;45.550;12.072;2023-05-10T10:53:33;4.07;;;3.60;;
53287;SDS011;39172;45.550;12.072;2023-05-10T10:59:34;4.10;;;3.50;;
53287;SDS011;39172;45.550;12.072;2023-05-10T11:05:40;4.40;;;3.60;;
53287;SDS011;39172;45.550;12.072;2023-05-10T11:11:51;5.28;;;4.20;;
53287;SDS011;39172;45.550;12.072;2023-05-10T11:17:56;5.03;;;4.18;;
53287;SDS011;39172;45.550;12.072;2023-05-10T11:23:57;4.28;;;3.58;;
53287;SDS011;39172;45.550;12.072;2023-05-10T11:30:06;3.88;;;3.05;;
53287;SDS011;39172;45.550;12.072;2023-05-10T11:36:10;3.45;;;3.15;;
53287;SDS011;39172;45.550;12.072;2023-05-10T11:42:11;4.80;;;3.70;;
53287;SDS011;39172;45.550;12.072;2023-05-10T11:48:13;5.00;;;4.22;;
53287;SDS011;39172;45.550;12.072;2023-05-10T11:54:14;4.68;;;4.10;;
53287;SDS011;39172;45.550;12.072;2023-05-10T12:00:15;5.10;;;4.20;;
53287;SDS011;39172;45.550;12.072;2023-05-10T12:06:25;4.57;;;3.90;;
53287;SDS011;39172;45.550;12.072;2023-05-10T12:12:26;5.68;;;4.60;;
53287;SDS011;39172;45.550;12.072;2023-05-10T12:18:31;5.47;;;4.10;;
53287;SDS011;39172;45.550;12.072;2023-05-10T12:24:36;5.15;;;4.20;;
53287;SDS011;39172;45.550;12.072;2023-05-10T12:30:37;4.30;;;3.65;;
53287;SDS011;39172;45.550;12.072;2023-05-10T12:36:38;5.35;;;4.10;;
53287;SDS011;39172;45.550;12.072;2023-05-10T12:42:39;5.30;;;4.25;;
53287;SDS011;39172;45.550;12.072;2023-05-10T12:48:41;6.15;;;4.80;;
53287;SDS011;39172;45.550;12.072;2023-05-10T12:54:42;5.15;;;4.20;;
53287;SDS011;39172;45.550;12.072;2023-05-10T13:00:43;5.45;;;4.50;;
53287;SDS011;39172;45.550;12.072;2023-05-10T13:06:45;5.93;;;4.50;;
53287;SDS011;39172;45.550;12.072;2023-05-10T13:12:45;6.90;;;4.70;;
53287;SDS011;39172;45.550;12.072;2023-05-10T13:18:46;5.35;;;4.78;;
53287;SDS011;39172;45.550;12.072;2023-05-10T13:24:47;6.05;;;4.90;;
53287;SDS011;39172;45.550;12.072;2023-05-10T13:30:48;5.78;;;4.65;;
53287;SDS011;39172;45.550;12.072;2023-05-10T13:36:49;6.00;;;4.68;;
53287;SDS011;39172;45.550;12.072;2023-05-10T13:42:50;5.53;;;4.97;;
53287;SDS011;39172;45.550;12.072;2023-05-10T13:48:51;6.45;;;4.90;;
53287;SDS011;39172;45.550;12.072;2023-05-10T13:54:52;6.50;;;4.90;;
53287;SDS011;39172;45.550;12.072;2023-05-10T14:00:55;5.70;;;4.63;;
53287;SDS011;39172;45.550;12.072;2023-05-10T14:06:56;5.80;;;4.93;;
53287;SDS011;39172;45.550;12.072;2023-05-10T14:13:00;5.97;;;4.88;;
53287;SDS011;39172;45.550;12.072;2023-05-10T14:19:01;5.50;;;4.90;;
53287;SDS011;39172;45.550;12.072;2023-05-10T14:25:03;6.03;;;4.82;;
53287;SDS011;39172;45.550;12.072;2023-05-10T14:31:04;5.85;;;5.00;;
53287;SDS011;39172;45.550;12.072;2023-05-10T14:37:06;5.95;;;4.95;;
53287;SDS011;39172;45.550;12.072;2023-05-10T14:43:07;6.32;;;5.20;;
53287;SDS011;39172;45.550;12.072;2023-05-10T14:49:08;5.68;;;5.07;;
53287;SDS011;39172;45.550;12.072;2023-05-10T14:55:09;5.47;;;4.97;;
53287;SDS011;39172;45.550;12.072;2023-05-10T15:01:10;6.65;;;5.45;;
53287;SDS011;39172;45.550;12.072;2023-05-10T15:07:11;5.90;;;5.30;;
53287;SDS011;39172;45.550;12.072;2023-05-10T15:13:15;6.88;;;6.18;;
53287;SDS011;39172;45.550;12.072;2023-05-10T15:19:16;6.35;;;5.75;;
53287;SDS011;39172;45.550;12.072;2023-05-10T15:25:17;6.00;;;5.40;;
53287;SDS011;39172;45.550;12.072;2023-05-10T15:31:18;6.38;;;5.78;;
53287;SDS011;39172;45.550;12.072;2023-05-10T15:37:18;6.65;;;5.95;;
53287;SDS011;39172;45.550;12.072;2023-05-10T15:43:27;7.72;;;6.05;;
53287;SDS011;39172;45.550;12.072;2023-05-10T15:49:29;6.53;;;5.85;;
53287;SDS011;39172;45.550;12.072;2023-05-10T15:55:38;7.07;;;6.38;;
53287;SDS011;39172;45.550;12.072;2023-05-10T16:01:39;7.60;;;6.75;;
53287;SDS011;39172;45.550;12.072;2023-05-10T16:07:40;6.90;;;6.10;;
53287;SDS011;39172;45.550;12.072;2023-05-10T16:13:41;7.90;;;6.00;;
53287;SDS011;39172;45.550;12.072;2023-05-10T16:19:42;7.13;;;5.97;;
53287;SDS011;39172;45.550;12.072;2023-05-10T16:25:44;7.10;;;6.40;;
53287;SDS011;39172;45.550;12.072;2023-05-10T16:31:47;7.30;;;6.60;;
53287;SDS011;39172;45.550;12.072;2023-05-10T16:37:48;7.15;;;6.38;;
53287;SDS011;39172;45.550;12.072;2023-05-10T16:43:50;8.40;;;6.82;;
53287;SDS011;39172;45.550;12.072;2023-05-10T16:49:51;7.93;;;6.95;;
53287;SDS011;39172;45.550;12.072;2023-05-10T16:55:52;7.22;;;6.53;;
53287;SDS011;39172;45.550;12.072;2023-05-10T17:01:53;8.10;;;6.95;;
53287;SDS011;39172;45.550;12.072;2023-05-10T17:07:54;8.15;;;6.80;;
53287;SDS011;39172;45.550;12.072;2023-05-10T17:13:57;7.07;;;6.38;;
53287;SDS011;39172;45.550;12.072;2023-05-10T17:20:01;6.72;;;6.00;;
53287;SDS011;39172;45.550;12.072;2023-05-10T17:26:03;6.90;;;6.20;;
53287;SDS011;39172;45.550;12.072;2023-05-10T17:32:04;6.90;;;6.30;;
53287;SDS011;39172;45.550;12.072;2023-05-10T17:38:05;7.78;;;6.95;;
53287;SDS011;39172;45.550;12.072;2023-05-10T17:44:06;7.90;;;7.20;;
53287;SDS011;39172;45.550;12.072;2023-05-10T17:50:07;8.32;;;7.50;;
53287;SDS011;39172;45.550;12.072;2023-05-10T17:56:09;8.27;;;7.47;;
53287;SDS011;39172;45.550;12.072;2023-05-10T18:02:11;8.20;;;7.40;;
53287;SDS011;39172;45.550;12.072;2023-05-10T18:08:12;7.65;;;6.95;;
53287;SDS011;39172;45.550;12.072;2023-05-10T18:14:14;7.80;;;7.10;;
53287;SDS011;39172;45.550;12.072;2023-05-10T18:20:15;7.53;;;6.82;;
53287;SDS011;39172;45.550;12.072;2023-05-10T18:26:16;8.63;;;7.03;;
53287;SDS011;39172;45.550;12.072;2023-05-10T18:32:17;7.85;;;7.13;;
53287;SDS011;39172;45.550;12.072;2023-05-10T18:38:18;7.97;;;7.18;;
53287;SDS011;39172;45.550;12.072;2023-05-10T18:44:19;7.63;;;6.80;;
53287;SDS011;39172;45.550;12.072;2023-05-10T18:50:22;8.73;;;7.18;;
53287;SDS011;39172;45.550;12.072;2023-05-10T18:56:23;7.82;;;7.03;;
53287;SDS011;39172;45.550;12.072;2023-05-10T19:02:24;7.05;;;6.35;;
53287;SDS011;39172;45.550;12.072;2023-05-10T19:08:26;6.70;;;6.00;;
53287;SDS011;39172;45.550;12.072;2023-05-10T19:14:27;6.97;;;6.28;;
53287;SDS011;39172;45.550;12.072;2023-05-10T19:20:28;6.40;;;5.80;;
53287;SDS011;39172;45.550;12.072;2023-05-10T19:26:29;5.70;;;5.20;;
53287;SDS011;39172;45.550;12.072;2023-05-10T19:32:30;5.65;;;5.15;;
53287;SDS011;39172;45.550;12.072;2023-05-10T19:38:32;5.50;;;5.00;;
53287;SDS011;39172;45.550;12.072;2023-05-10T19:44:33;5.43;;;4.93;;
53287;SDS011;39172;45.550;12.072;2023-05-10T19:50:34;5.45;;;4.80;;
53287;SDS011;39172;45.550;12.072;2023-05-10T19:56:35;5.55;;;4.93;;
53287;SDS011;39172;45.550;12.072;2023-05-10T20:02:36;4.72;;;4.32;;
53287;SDS011;39172;45.550;12.072;2023-05-10T20:08:37;4.45;;;3.72;;
53287;SDS011;39172;45.550;12.072;2023-05-10T20:14:37;4.32;;;3.90;;
53287;SDS011;39172;45.550;12.072;2023-05-10T20:20:38;4.15;;;3.75;;
53287;SDS011;39172;45.550;12.072;2023-05-10T20:26:44;3.97;;;3.53;;
53287;SDS011;39172;45.550;12.072;2023-05-10T20:32:45;3.63;;;3.33;;
53287;SDS011;39172;45.550;12.072;2023-05-10T20:38:46;3.80;;;3.40;;
53287;SDS011;39172;45.550;12.072;2023-05-10T20:44:47;3.72;;;3.33;;
53287;SDS011;39172;45.550;12.072;2023-05-10T20:50:48;3.22;;;2.92;;
53287;SDS011;39172;45.550;12.072;2023-05-10T20:56:49;2.80;;;2.50;;
53287;SDS011;39172;45.550;12.072;2023-05-10T21:02:50;3.10;;;2.80;;
53287;SDS011;39172;45.550;12.072;2023-05-10T21:08:51;3.35;;;2.97;;
53287;SDS011;39172;45.550;12.072;2023-05-10T21:14:52;3.63;;;2.60;;
53287;SDS011;39172;45.550;12.072;2023-05-10T21:20:53;3.40;;;2.50;;
53287;SDS011;39172;45.550;12.072;2023-05-10T21:26:54;3.13;;;2.80;;
53287;SDS011;39172;45.550;12.072;2023-05-10T21:32:55;2.90;;;2.70;;
53287;SDS011;39172;45.550;12.072;2023-05-10T21:38:59;3.10;;;2.72;;
53287;SDS011;39172;45.550;12.072;2023-05-10T21:45:00;2.70;;;2.38;;
53287;SDS011;39172;45.550;12.072;2023-05-10T21:51:01;2.92;;;2.72;;
53287;SDS011;39172;45.550;12.072;2023-05-10T21:57:02;2.70;;;2.50;;
53287;SDS011;39172;45.550;12.072;2023-05-10T22:03:03;2.88;;;2.60;;
53287;SDS011;39172;45.550;12.072;2023-05-10T22:09:04;2.70;;;2.50;;
53287;SDS011;39172;45.550;12.072;2023-05-10T22:15:05;2.47;;;2.28;;
53287;SDS011;39172;45.550;12.072;2023-05-10T22:21:07;2.78;;;2.30;;
53287;SDS011;39172;45.550;12.072;2023-05-10T22:27:08;2.42;;;2.22;;
53287;SDS011;39172;45.550;12.072;2023-05-10T22:33:09;2.45;;;2.25;;
53287;SDS011;39172;45.550;12.072;2023-05-10T22:39:10;2.70;;;2.30;;
53287;SDS011;39172;45.550;12.072;2023-05-10T22:45:11;2.55;;;2.25;;
53287;SDS011;39172;45.550;12.072;2023-05-10T22:51:12;2.50;;;2.10;;
53287;SDS011;39172;45.550;12.072;2023-05-10T22:57:13;2.35;;;2.15;;
53287;SDS011;39172;45.550;12.072;2023-05-10T23:03:14;2.33;;;1.98;;
53287;SDS011;39172;45.550;12.072;2023-05-10T23:09:15;2.00;;;1.90;;
53287;SDS011;39172;45.550;12.072;2023-05-10T23:15:18;1.60;;;1.50;;
53287;SDS011;39172;45.550;12.072;2023-05-10T23:21:19;1.75;;;1.50;;
53287;SDS011;39172;45.550;12.072;2023-05-10T23:27:20;1.40;;;1.27;;
53287;SDS011;39172;45.550;12.072;2023-05-10T23:33:22;1.40;;;1.30;;
53287;SDS011;39172;45.550;12.072;2023-05-10T23:39:23;1.30;;;1.20;;
53287;SDS011;39172;45.550;12.072;2023-05-10T23:45:24;1.38;;;1.10;;
53287;SDS011;39172;45.550;12.072;2023-05-10T23:51:25;1.80;;;1.00;;
53287;SDS011;39172;45.550;12.072;2023-05-10T23:57:26;1.10;;;1.00;;
